createdAt,value
2022-10-17T00:01:48.652Z,9.33
2022-10-17T00:07:11.576Z,9.11
2022-10-17T00:12:33.719Z,8.94
2022-10-17T00:17:55.889Z,9.11
2022-10-17T00:23:18.235Z,9.00
2022-10-17T00:28:40.620Z,8.89
2022-10-17T00:34:02.770Z,8.66
2022-10-17T00:39:24.969Z,8.97
2022-10-17T00:44:57.948Z,8.87
2022-10-17T00:50:21.252Z,8.77
2022-10-17T00:55:51.093Z,8.74
2022-10-17T01:01:14.569Z,8.90
2022-10-17T01:06:36.793Z,8.79
2022-10-17T01:12:29.569Z,8.68
2022-10-17T01:18:20.433Z,8.58
2022-10-17T01:24:02.755Z,8.53
2022-10-17T01:29:38.495Z,8.57
2022-10-17T01:35:20.763Z,8.70
2022-10-17T01:40:48.568Z,8.52
2022-10-17T01:46:18.792Z,8.48
2022-10-17T01:57:19.314Z,8.58
2022-10-17T02:02:43.885Z,8.65
2022-10-17T02:08:06.026Z,8.62
2022-10-17T02:13:57.428Z,8.41
2022-10-17T02:19:30.342Z,8.44
2022-10-17T02:25:09.032Z,8.64
2022-10-17T02:30:52.636Z,8.87
2022-10-17T02:36:19.047Z,8.90
2022-10-17T02:41:43.386Z,8.87
2022-10-17T02:47:10.395Z,8.91
2022-10-17T02:52:47.013Z,8.88
2022-10-17T02:58:20.401Z,8.86
2022-10-17T03:03:44.972Z,8.92
2022-10-17T03:09:07.475Z,9.00
2022-10-17T03:14:30.605Z,9.23
2022-10-17T03:19:52.752Z,9.44
2022-10-17T03:25:14.876Z,9.38
2022-10-17T03:30:37.103Z,9.36
2022-10-17T03:35:59.250Z,9.34
2022-10-17T03:41:22.613Z,9.41
2022-10-17T03:46:44.843Z,9.53
2022-10-17T03:52:07.007Z,9.64
2022-10-17T03:57:30.326Z,9.68
2022-10-17T04:02:54.275Z,9.71
2022-10-17T04:08:16.418Z,9.78
2022-10-17T04:13:38.549Z,9.75
2022-10-17T04:19:03.998Z,9.75
2022-10-17T04:24:29.415Z,9.78
2022-10-17T04:29:51.534Z,9.77
2022-10-17T04:35:13.903Z,9.75
2022-10-17T04:40:37.255Z,9.78
2022-10-17T04:46:00.544Z,9.75
2022-10-17T04:51:26.780Z,9.66
2022-10-17T04:56:49.887Z,9.56
2022-10-17T05:02:12.448Z,9.51
2022-10-17T05:07:34.669Z,9.58
2022-10-17T05:12:56.905Z,9.61
2022-10-17T05:18:19.910Z,9.65
2022-10-17T05:23:42.644Z,9.70
2022-10-17T05:29:06.588Z,9.75
2022-10-17T05:34:29.282Z,9.86
2022-10-17T05:39:51.714Z,9.84
2022-10-17T05:45:14.509Z,9.82
2022-10-17T05:50:37.687Z,9.85
2022-10-17T05:56:04.754Z,9.91
2022-10-17T06:01:28.140Z,9.90
2022-10-17T06:06:50.751Z,9.88
2022-10-17T06:12:13.807Z,9.92
2022-10-17T06:17:35.955Z,9.96
2022-10-17T06:22:58.127Z,10.09
2022-10-17T06:28:21.246Z,10.17
2022-10-17T06:33:43.697Z,10.27
2022-10-17T06:39:06.003Z,10.31
2022-10-17T06:44:29.787Z,10.38
2022-10-17T06:49:52.426Z,10.48
2022-10-17T06:55:16.901Z,10.63
2022-10-17T07:00:38.780Z,10.79
2022-10-17T07:06:05.068Z,10.93
2022-10-17T07:11:33.279Z,11.05
2022-10-17T07:16:57.579Z,11.26
2022-10-17T07:22:20.733Z,11.52
2022-10-17T07:27:43.472Z,11.73
2022-10-17T07:33:07.214Z,11.84
2022-10-17T07:38:30.400Z,11.96
2022-10-17T07:43:53.133Z,12.09
2022-10-17T07:49:15.839Z,12.31
2022-10-17T07:54:38.246Z,12.49
2022-10-17T08:00:00.409Z,12.67
2022-10-17T08:05:22.812Z,12.86
2022-10-17T08:10:45.517Z,13.06
2022-10-17T08:16:10.092Z,13.30
2022-10-17T08:21:32.707Z,13.54
2022-10-17T08:26:54.917Z,13.79
2022-10-17T08:32:17.128Z,14.16
2022-10-17T08:37:39.324Z,14.53
2022-10-17T08:43:21.536Z,14.70
2022-10-17T08:48:47.231Z,14.94
2022-10-17T08:54:20.686Z,15.21
2022-10-17T08:59:44.486Z,15.42
2022-10-17T09:05:50.776Z,15.63
2022-10-17T09:11:39.492Z,15.92
2022-10-17T09:17:26.222Z,16.30
2022-10-17T09:23:08.186Z,16.62
2022-10-17T09:28:46.441Z,16.99
2022-10-17T09:34:11.937Z,17.24
2022-10-17T09:39:41.550Z,17.54
2022-10-17T09:45:22.613Z,17.64
2022-10-17T09:51:25.644Z,18.02
2022-10-17T09:56:40.513Z,18.40
2022-10-17T10:02:21.293Z,19.50
2022-10-17T10:07:47.198Z,20.31
2022-10-17T10:13:29.372Z,20.22
2022-10-17T10:18:54.173Z,20.36
2022-10-17T10:24:30.877Z,20.72
2022-10-17T10:29:58.508Z,20.79
2022-10-17T10:35:30.983Z,20.72
2022-10-17T10:41:13.187Z,21.92
2022-10-17T10:46:41.495Z,21.90
2022-10-17T10:52:05.786Z,21.84
2022-10-17T10:57:32.970Z,22.02
2022-10-17T11:03:17.850Z,22.30
2022-10-17T11:08:54.859Z,22.60
2022-10-17T11:14:36.467Z,22.93
2022-10-17T11:20:18.043Z,23.23
2022-10-17T11:25:46.502Z,22.75
2022-10-17T11:31:26.222Z,23.38
2022-10-17T11:36:51.527Z,23.63
2022-10-17T11:42:18.735Z,23.20
2022-10-17T11:48:00.394Z,23.01
2022-10-17T11:53:30.150Z,22.38
2022-10-17T11:58:55.650Z,22.92
2022-10-17T12:05:02.874Z,22.99
2022-10-17T12:10:48.567Z,23.95
2022-10-17T12:16:29.076Z,23.64
2022-10-17T12:22:14.492Z,24.52
2022-10-17T12:27:47.728Z,24.50
2022-10-17T12:33:24.885Z,23.14
2022-10-17T12:38:50.074Z,23.25
2022-10-17T12:44:14.971Z,22.71
2022-10-17T12:55:35.994Z,22.08
2022-10-17T13:01:24.324Z,22.19
2022-10-17T13:06:45.644Z,21.90
2022-10-17T13:12:10.985Z,21.74
2022-10-17T13:17:43.974Z,22.40
2022-10-17T13:23:07.232Z,22.70
2022-10-17T13:28:32.410Z,22.74
2022-10-17T13:34:01.212Z,23.14
2022-10-17T13:39:52.399Z,23.72
2022-10-17T13:44:55.602Z,23.80
2022-10-17T13:50:43.475Z,23.59
2022-10-17T13:56:22.820Z,23.43
2022-10-17T14:01:26.897Z,22.18
2022-10-17T14:06:56.370Z,22.35
2022-10-17T14:12:26.060Z,22.64
2022-10-17T14:17:50.182Z,22.75
2022-10-17T14:23:22.773Z,22.03
2022-10-17T14:28:41.053Z,22.27
2022-10-17T14:34:06.422Z,22.07
2022-10-17T14:39:33.144Z,21.85
2022-10-17T14:44:56.125Z,21.65
2022-10-17T14:50:32.321Z,21.37
2022-10-17T14:56:04.549Z,21.12
2022-10-17T15:01:26.794Z,20.83
2022-10-17T15:06:51.502Z,20.48
2022-10-17T15:12:23.567Z,20.39
2022-10-17T15:17:47.410Z,20.39
2022-10-17T15:23:11.705Z,20.08
2022-10-17T15:28:34.462Z,19.77
2022-10-17T15:33:57.693Z,19.53
2022-10-17T15:39:22.175Z,19.35
2022-10-17T15:44:44.987Z,19.27
2022-10-17T15:50:09.242Z,19.08
2022-10-17T15:55:32.368Z,18.83
2022-10-17T16:00:54.609Z,18.65
2022-10-17T16:06:16.873Z,18.55
2022-10-17T16:11:53.290Z,18.28
2022-10-17T16:17:17.704Z,18.08
2022-10-17T16:22:43.391Z,18.06
2022-10-17T16:28:08.939Z,18.05
2022-10-17T16:33:31.864Z,18.00
2022-10-17T16:38:55.340Z,17.91
2022-10-17T16:44:20.053Z,17.80
2022-10-17T16:49:45.200Z,17.51
2022-10-17T16:55:10.712Z,17.31
2022-10-17T17:00:33.513Z,17.28
2022-10-17T17:05:58.340Z,17.10
2022-10-17T17:11:22.441Z,16.97
2022-10-17T17:16:46.346Z,17.01
2022-10-17T17:22:08.513Z,16.82
2022-10-17T17:27:31.016Z,16.64
2022-10-17T17:32:53.620Z,16.58
2022-10-17T17:38:15.801Z,16.46
2022-10-17T17:43:38.093Z,16.44
2022-10-17T17:49:01.335Z,16.39
2022-10-17T17:54:23.475Z,16.15
2022-10-17T17:59:45.611Z,16.01
2022-10-17T18:05:08.496Z,15.83
2022-10-17T18:10:30.709Z,15.69
2022-10-17T18:15:58.006Z,15.42
2022-10-17T18:21:21.819Z,15.28
2022-10-17T18:26:45.579Z,15.08
2022-10-17T18:32:07.943Z,14.89
2022-10-17T18:37:31.084Z,14.70
2022-10-17T18:42:54.814Z,14.49
2022-10-17T18:48:17.595Z,14.32
2022-10-17T18:53:41.332Z,14.16
2022-10-17T18:59:04.625Z,14.00
2022-10-17T19:04:27.213Z,13.89
2022-10-17T19:09:49.431Z,13.80
2022-10-17T19:15:11.782Z,13.75
2022-10-17T19:20:33.938Z,13.67
2022-10-17T19:25:58.372Z,13.64
2022-10-17T19:31:26.302Z,13.67
2022-10-17T19:36:47.934Z,13.58
2022-10-17T19:42:10.167Z,13.53
2022-10-17T19:47:32.416Z,13.55
2022-10-17T19:52:54.661Z,13.64
2022-10-17T19:58:16.880Z,13.60
2022-10-17T20:03:39.989Z,13.62
2022-10-17T20:09:02.614Z,13.54
2022-10-17T20:14:24.750Z,13.49
2022-10-17T20:19:47.498Z,13.45
2022-10-17T20:25:10.296Z,13.34
2022-10-17T20:30:32.511Z,13.54
2022-10-17T20:35:56.315Z,13.38
2022-10-17T20:41:24.038Z,13.29
2022-10-17T20:47:00.713Z,13.27
2022-10-17T20:52:10.768Z,13.22
2022-10-17T20:57:32.904Z,13.13
2022-10-17T21:08:19.733Z,13.02
2022-10-17T21:13:41.904Z,12.93
2022-10-17T21:19:04.258Z,12.83
2022-10-17T21:24:29.223Z,12.81
2022-10-17T21:29:52.239Z,13.17
2022-10-17T21:35:14.417Z,12.94
2022-10-17T21:40:36.598Z,12.93
2022-10-17T21:45:58.841Z,12.99
2022-10-17T21:51:24.146Z,12.80
2022-10-17T21:56:47.113Z,12.86
2022-10-17T22:02:09.244Z,12.93
2022-10-17T22:07:32.266Z,12.89
2022-10-17T22:12:54.409Z,13.07
2022-10-17T22:18:17.648Z,13.16
2022-10-17T22:23:39.943Z,13.13
2022-10-17T22:29:02.261Z,13.27
2022-10-17T22:34:26.023Z,13.55
2022-10-17T22:39:48.248Z,13.37
2022-10-17T22:45:10.567Z,13.38
2022-10-17T22:50:35.943Z,13.24
2022-10-17T22:56:04.346Z,13.40
2022-10-17T23:01:29.758Z,13.56
2022-10-17T23:06:51.930Z,13.40
2022-10-17T23:12:14.787Z,13.29
2022-10-17T23:17:36.922Z,13.15
2022-10-17T23:22:59.166Z,13.07
2022-10-17T23:28:21.408Z,13.08
2022-10-17T23:33:45.265Z,13.02
2022-10-17T23:39:07.730Z,13.06
2022-10-17T23:44:30.445Z,12.81
2022-10-17T23:49:52.596Z,12.67
2022-10-17T23:55:16.460Z,12.47
